Fasa, Iran

6:20 PM IRST on September 22, 2014 (GMT +0330)
Fasa | Change Station
CLOSE
Current Station
Airport
Location: Fasa,
Elevation: 4259 ft
Nearby Weather Stations

Elev 4259 ft 28.90 °N, 53.72 °E | Updated 2 hours ago

Clear
Clear
95 °F
Feels Like 95 °F
N
16
Wind Variable Wind from SW

Today
High -- | Low -- °F
--% Chance of Precip.
Yesterday
High -- | Low -- °F
Precip. -- in
5:43 AM 5:52 PM
Waning Crescent, 3% visible
Pressure 29.86 in
Visibility -9999.0 miles
Clouds
Dew Point 25 °F
Humidity 8%
Rainfall 0.00 in
Snow Depth Not available.
UV Not available.
Pollen Not available.
Air Quality Not available.
Flu Activity Not available.
METAR OISF 221250Z 22014KT CAVOK 35/M04 Q1011

More Conditions Fewer Conditions

Pressure 29.86 in
Visibility -9999.0 miles
Clouds
Dew Point 25 °F
Humidity 8%
Rainfall 0.00 in
Snow Depth Not available.
UV Not available.
Pollen Not available.
Air Quality Not available.
Flu Activity Not available.
METAR OISF 221250Z 22014KT CAVOK 35/M04 Q1011

More Conditions Fewer Conditions

10-Day Weather Forecast

Almanac

Astronomy

Sep. 22, 2014 Rise Set
Actual Time 5:43 AM IRST 5:52 PM IRST
Civil Twilight 5:19 AM IRST 6:15 PM IRST
Nautical Twilight 4:52 AM IRST 6:43 PM IRST
Astronomical Twilight 4:24 AM IRST 7:11 PM IRST
Moon 3:56 AM IRST 4:42 PM IRST
Length of Visible Light 12h 56m
Length of Day
12h 08m
Tomorrow will be 1m 44s shorter.
Waning Crescent, 3% of the Moon is Illuminated
Today
Waning Crescent
Sep 24
New
Oct 1
First Quarter
Oct 8
Full
Oct 15
Last Quarter

Today's Extremes

Country Highs Country Lows

Community

WunderPhotos

Upload Photos

1,755,459 photos uploaded!

WunderBlogs® & News

Nearby

Snow Depth

Not available.

Earthquake Activity

City Distance Mag. Time & Date
No recent earthquake activity has been reported nearby.
Minimum magnitude displayed is 2.5.

Coastal Water Temperatures

Place Temperature
No Stations Reporting

Nearby Weather Stations